Share

Katmai National Park, AK

11:45 PM AKDT on April 24, 2014 (GMT -0800)
King Salmon (PAKN) Elev 46 ft | 58.68 °N, 156.66 °W | Change Station

Current weather conditions updated 51 minutes ago

Mostly Cloudy
Mostly Cloudy
39 °F
Feels Like 32 °F
N
12
Wind Variable Wind from SSE
Sunrise 6:48 AM
Sunset 10:02 PM
Moon Waning Crescent

Tomorrow is forecast to be nearly the same temperature as today. Mostly cloudy and windy.

Pressure 29.42 in
Visibility 10.0 miles
Clouds Few 3500 ft
Scattered Clouds 6000 ft
Mostly Cloudy 9500 ft
Mostly Cloudy 21000 ft
Windchill 32 °F
Dew Point 35 °F
Humidity 86%
Rainfall 0.10 in
Snow Depth Not available.
UV 0 out of 16
Pollen Not available.
Air Quality Not available.
Flu Activity Sporadic
METAR PAKN 250654Z 16010KT 10SM FEW035 SCT060 BKN095 BKN210 04/02 A2942 RMK AO2 SLP961 T00390017

More Conditions Fewer Conditions

Pressure 29.42 in
Visibility 10.0 miles
Clouds Few 3500 ft
Scattered Clouds 6000 ft
Mostly Cloudy 9500 ft
Mostly Cloudy 21000 ft
Windchill 32 °F
Dew Point 35 °F
Humidity 86%
Rainfall 0.10 in
Snow Depth Not available.
UV 0 out of 16
Pollen Not available.
Air Quality Not available.
Flu Activity Sporadic
METAR PAKN 250654Z 16010KT 10SM FEW035 SCT060 BKN095 BKN210 04/02 A2942 RMK AO2 SLP961 T00390017

More Conditions Fewer Conditions

10-Day Weather Forecast

Almanac

Astronomy

Apr. 24, 2014 Rise Set
Actual Time 6:48 AM AKDT 10:02 PM AKDT
Civil Twilight 6:01 AM AKDT 10:49 PM AKDT
Nautical Twilight 4:56 AM AKDT 11:56 PM AKDT
Astronomical Twilight 3:00 AM AKDT 2:10 AM AKDT
Moon 5:14 AM AKDT (4/24) 4:28 PM AKDT (4/24)
Length of Visible Light 16h 48m
Length of Day
15h 13m
Tomorrow will be 4m 59s longer.
Waning Crescent, 18% of the Moon is Illuminated
Apr 25
Waning Crescent
Apr 29
New
May 6
First Quarter
May 14
Full
May 21
Last Quarter

Community

  • Deer in evening light
    Deer in evening light
  • Critter
    Critter
  • Jone Runs Falls
    Jone Runs Falls
  • Easter in Shenandoah National Park
    Easter in Shenandoah National Park
  • Sunset at Apalachicola Bay, Florida
    Sunset at Apalachicola Bay, Florida

WunderPhotos

Upload Photos

1,704,872 photos uploaded!

WunderBlogs® & News

Nearby

Snow Depth

Station Depth Elevation
Port Graham 0 in 300 ft
Mcneil Canyon 3 in 1320 ft
MF Bradley River 17 in 2300 ft
Nuka Glacier 27 in 1250 ft
Cooper Lake 17 in 1200 ft

Coastal Water Temperatures

Place Temperature
No Stations Reporting

Earthquake Activity

City Distance Mag. Time & Date
No recent earthquake activity has been reported nearby.
Minimum magnitude displayed is 2.5.

Nearby Weather Stations

Station Location Temp. Windchill Dew Point Humidity Wind Precip. Elev Updated Type
MesoWest LOWER MULCHATNA , South Naknek, AK 41 °F 41 °F - - North  at  - 0.00 in / hr 319 ft 9:00 PM AKDT MADIS

Show More Stations Show Fewer Stations

What do you think?

We're not finished. Please let us know what you like, what you don't like, and what you are still missing.